sensor_id;sensor_type;location;lat;lon;timestamp;pressure;altitude;pressure_sealevel;temperature;humidity
40982;BME280;26708;50.304;19.028;2023-03-22T00:00:11;98271.47;;;9.52;66.85
40982;BME280;26708;50.304;19.028;2023-03-22T00:02:17;98267.13;;;9.53;67.10
40982;BME280;26708;50.304;19.028;2023-03-22T00:04:23;98266.22;;;9.55;66.91
40982;BME280;26708;50.304;19.028;2023-03-22T00:06:28;98258.41;;;9.54;66.87
40982;BME280;26708;50.304;19.028;2023-03-22T00:08:33;98258.41;;;9.51;66.81
40982;BME280;26708;50.304;19.028;2023-03-22T00:10:40;98194.97;;;9.14;66.88
40982;BME280;26708;50.304;19.028;2023-03-22T00:12:48;98259.28;;;9.45;66.98
40982;BME280;26708;50.304;19.028;2023-03-22T00:14:55;98111.63;;;8.65;66.96
40982;BME280;26708;50.304;19.028;2023-03-22T00:17:01;98261.91;;;9.47;66.88
40982;BME280;26708;50.304;19.028;2023-03-22T00:19:06;98247.97;;;9.46;66.85
40982;BME280;26708;50.304;19.028;2023-03-22T00:21:15;98252.31;;;9.49;66.68
40982;BME280;26708;50.304;19.028;2023-03-22T00:23:21;98260.16;;;9.50;66.59
40982;BME280;26708;50.304;19.028;2023-03-22T00:25:27;98251.47;;;9.48;66.66
40982;BME280;26708;50.304;19.028;2023-03-22T00:27:32;98253.16;;;9.55;66.76
40982;BME280;26708;50.304;19.028;2023-03-22T00:29:37;98250.56;;;9.57;66.47
40982;BME280;26708;50.304;19.028;2023-03-22T00:31:45;98249.69;;;9.59;66.51
40982;BME280;26708;50.304;19.028;2023-03-22T00:33:50;98195.81;;;9.28;66.41
40982;BME280;26708;50.304;19.028;2023-03-22T00:35:58;98188.00;;;9.25;66.39
40982;BME280;26708;50.304;19.028;2023-03-22T00:38:05;98253.16;;;9.58;66.34
40982;BME280;26708;50.304;19.028;2023-03-22T00:40:14;98255.78;;;9.58;66.12
40982;BME280;26708;50.304;19.028;2023-03-22T00:42:19;98247.94;;;9.58;65.89
40982;BME280;26708;50.304;19.028;2023-03-22T00:44:24;98248.81;;;9.57;65.65
40982;BME280;26708;50.304;19.028;2023-03-22T00:46:29;98238.38;;;9.57;65.68
40982;BME280;26708;50.304;19.028;2023-03-22T00:48:36;98237.50;;;9.58;65.90
40982;BME280;26708;50.304;19.028;2023-03-22T00:50:41;98181.03;;;9.21;65.84
40982;BME280;26708;50.304;19.028;2023-03-22T00:52:46;98240.09;;;9.55;65.85
40982;BME280;26708;50.304;19.028;2023-03-22T00:54:51;98208.81;;;9.40;65.98
40982;BME280;26708;50.304;19.028;2023-03-22T00:56:57;98237.47;;;9.55;66.06
40982;BME280;26708;50.304;19.028;2023-03-22T00:59:02;98220.13;;;9.41;66.06
40982;BME280;26708;50.304;19.028;2023-03-22T01:01:07;98231.41;;;9.47;65.41
40982;BME280;26708;50.304;19.028;2023-03-22T01:03:14;98218.41;;;9.35;65.31
40982;BME280;26708;50.304;19.028;2023-03-22T01:05:25;98233.19;;;9.45;65.08
40982;BME280;26708;50.304;19.028;2023-03-22T01:07:29;98176.72;;;9.11;64.95
40982;BME280;26708;50.304;19.028;2023-03-22T01:09:38;98215.81;;;9.34;65.06
40982;BME280;26708;50.304;19.028;2023-03-22T01:11:43;98230.56;;;9.44;65.03
40982;BME280;26708;50.304;19.028;2023-03-22T01:13:47;98189.75;;;9.20;64.94
40982;BME280;26708;50.304;19.028;2023-03-22T01:15:53;98213.22;;;9.37;65.01
40982;BME280;26708;50.304;19.028;2023-03-22T01:17:59;98179.34;;;9.17;65.26
40982;BME280;26708;50.304;19.028;2023-03-22T01:20:05;98201.00;;;9.31;65.78
40982;BME280;26708;50.304;19.028;2023-03-22T01:22:14;98214.94;;;9.36;65.69
40982;BME280;26708;50.304;19.028;2023-03-22T01:24:19;98207.97;;;9.34;65.21
40982;BME280;26708;50.304;19.028;2023-03-22T01:26:26;98167.16;;;9.10;65.13
40982;BME280;26708;50.304;19.028;2023-03-22T01:28:32;98204.50;;;9.29;65.35
40982;BME280;26708;50.304;19.028;2023-03-22T01:30:38;98191.47;;;9.21;65.62
40982;BME280;26708;50.304;19.028;2023-03-22T01:32:43;98193.25;;;9.19;65.79
40982;BME280;26708;50.304;19.028;2023-03-22T01:34:49;98177.59;;;9.07;65.48
40982;BME280;26708;50.304;19.028;2023-03-22T01:36:54;98179.34;;;9.04;65.92
40982;BME280;26708;50.304;19.028;2023-03-22T01:39:02;98119.47;;;8.57;66.23
40982;BME280;26708;50.304;19.028;2023-03-22T01:41:08;98090.84;;;8.33;66.40
40982;BME280;26708;50.304;19.028;2023-03-22T01:43:16;98198.50;;;8.98;66.29
40982;BME280;26708;50.304;19.028;2023-03-22T01:45:37;98198.53;;;8.94;66.07
40982;BME280;26708;50.304;19.028;2023-03-22T01:47:50;98201.13;;;8.94;65.82
40982;BME280;26708;50.304;19.028;2023-03-22T01:49:58;98202.84;;;8.93;65.78
40982;BME280;26708;50.304;19.028;2023-03-22T01:52:08;98202.00;;;8.90;65.42
40982;BME280;26708;50.304;19.028;2023-03-22T01:54:51;98197.69;;;8.87;65.42
40982;BME280;26708;50.304;19.028;2023-03-22T01:57:17;98198.56;;;8.86;65.53
40982;BME280;26708;50.304;19.028;2023-03-22T01:59:23;98196.78;;;8.85;65.58
40982;BME280;26708;50.304;19.028;2023-03-22T02:01:50;98195.06;;;8.84;65.52
40982;BME280;26708;50.304;19.028;2023-03-22T02:03:58;98128.19;;;8.52;65.22
40982;BME280;26708;50.304;19.028;2023-03-22T02:06:08;98114.28;;;8.35;65.36
40982;BME280;26708;50.304;19.028;2023-03-22T02:08:14;98176.81;;;8.77;65.85
40982;BME280;26708;50.304;19.028;2023-03-22T02:10:36;98117.75;;;8.38;66.19
40982;BME280;26708;50.304;19.028;2023-03-22T02:12:54;98169.84;;;8.74;66.38
40982;BME280;26708;50.304;19.028;2023-03-22T02:15:24;98162.06;;;8.71;66.41
40982;BME280;26708;50.304;19.028;2023-03-22T02:18:06;98169.00;;;8.71;66.58
40982;BME280;26708;50.304;19.028;2023-03-22T02:20:53;98162.03;;;8.68;66.72
40982;BME280;26708;50.304;19.028;2023-03-22T02:23:32;98156.84;;;8.65;66.09
40982;BME280;26708;50.304;19.028;2023-03-22T02:26:29;98105.56;;;8.27;65.79
40982;BME280;26708;50.304;19.028;2023-03-22T02:28:53;98148.19;;;8.48;66.34
40982;BME280;26708;50.304;19.028;2023-03-22T02:31:23;98147.31;;;8.40;66.21
40982;BME280;26708;50.304;19.028;2023-03-22T02:34:04;98145.56;;;8.41;66.86
40982;BME280;26708;50.304;19.028;2023-03-22T02:37:14;98155.09;;;8.46;66.47
40982;BME280;26708;50.304;19.028;2023-03-22T02:39:48;98144.69;;;8.45;66.83
40982;BME280;26708;50.304;19.028;2023-03-22T02:42:11;98088.22;;;8.14;67.07
40982;BME280;26708;50.304;19.028;2023-03-22T02:44:40;98101.25;;;8.09;67.18
40982;BME280;26708;50.304;19.028;2023-03-22T02:46:58;98151.63;;;8.47;67.44
40982;BME280;26708;50.304;19.028;2023-03-22T02:49:17;98152.50;;;8.48;67.40
40982;BME280;26708;50.304;19.028;2023-03-22T02:51:34;98152.50;;;8.51;67.31
40982;BME280;26708;50.304;19.028;2023-03-22T02:53:49;98151.63;;;8.47;67.33
40982;BME280;26708;50.304;19.028;2023-03-22T02:56:04;98149.91;;;8.43;67.52
40982;BME280;26708;50.304;19.028;2023-03-22T02:58:20;98142.94;;;8.41;67.56
40982;BME280;26708;50.304;19.028;2023-03-22T03:00:30;98127.31;;;8.24;67.50
40982;BME280;26708;50.304;19.028;2023-03-22T03:02:44;98135.13;;;8.24;67.71
40982;BME280;26708;50.304;19.028;2023-03-22T03:04:54;98136.00;;;8.17;67.80
40982;BME280;26708;50.304;19.028;2023-03-22T03:07:05;98143.78;;;8.19;68.04
40982;BME280;26708;50.304;19.028;2023-03-22T03:09:15;98142.94;;;8.21;66.94
40982;BME280;26708;50.304;19.028;2023-03-22T03:11:26;98146.41;;;8.23;66.19
40982;BME280;26708;50.304;19.028;2023-03-22T03:13:30;98129.03;;;8.16;65.59
40982;BME280;26708;50.304;19.028;2023-03-22T03:15:37;98150.81;;;8.29;65.08
40982;BME280;26708;50.304;19.028;2023-03-22T03:17:59;98152.53;;;8.30;65.01
40982;BME280;26708;50.304;19.028;2023-03-22T03:20:26;98141.19;;;8.23;65.14
40982;BME280;26708;50.304;19.028;2023-03-22T03:22:53;98138.56;;;8.19;65.35
40982;BME280;26708;50.304;19.028;2023-03-22T03:25:15;98162.09;;;8.31;65.74
40982;BME280;26708;50.304;19.028;2023-03-22T03:27:36;98163.81;;;8.32;65.37
40982;BME280;26708;50.304;19.028;2023-03-22T03:29:52;98165.53;;;8.31;65.21
40982;BME280;26708;50.304;19.028;2023-03-22T03:32:09;98156.00;;;8.32;65.69
40982;BME280;26708;50.304;19.028;2023-03-22T03:34:26;98163.81;;;8.32;65.55
40982;BME280;26708;50.304;19.028;2023-03-22T03:36:45;98165.53;;;8.31;65.55
40982;BME280;26708;50.304;19.028;2023-03-22T03:38:57;98094.28;;;7.95;65.39
40982;BME280;26708;50.304;19.028;2023-03-22T03:41:08;98155.97;;;8.24;65.29
40982;BME280;26708;50.304;19.028;2023-03-22T03:43:20;98155.97;;;8.18;65.39
40982;BME280;26708;50.304;19.028;2023-03-22T03:45:28;98156.84;;;8.22;65.42
40982;BME280;26708;50.304;19.028;2023-03-22T03:47:35;98156.84;;;8.20;65.09
40982;BME280;26708;50.304;19.028;2023-03-22T03:49:40;98164.66;;;8.19;64.93
40982;BME280;26708;50.304;19.028;2023-03-22T03:51:49;98167.28;;;8.17;64.94
40982;BME280;26708;50.304;19.028;2023-03-22T03:53:56;98173.31;;;8.16;65.20
40982;BME280;26708;50.304;19.028;2023-03-22T03:56:00;98163.78;;;8.11;65.36
40982;BME280;26708;50.304;19.028;2023-03-22T03:58:12;98123.81;;;7.83;65.25
40982;BME280;26708;50.304;19.028;2023-03-22T04:00:20;98112.50;;;7.59;65.23
40982;BME280;26708;50.304;19.028;2023-03-22T04:02:45;98125.56;;;7.82;65.39
40982;BME280;26708;50.304;19.028;2023-03-22T04:05:11;98174.22;;;8.12;65.72
40982;BME280;26708;50.304;19.028;2023-03-22T04:07:17;98122.94;;;7.84;65.48
40982;BME280;26708;50.304;19.028;2023-03-22T04:09:23;98122.06;;;7.78;65.43
40982;BME280;26708;50.304;19.028;2023-03-22T04:11:33;98168.97;;;8.02;65.21
40982;BME280;26708;50.304;19.028;2023-03-22T04:13:39;98165.50;;;7.97;65.50
40982;BME280;26708;50.304;19.028;2023-03-22T04:15:54;98161.16;;;7.93;65.80
40982;BME280;26708;50.304;19.028;2023-03-22T04:18:04;98098.59;;;7.48;65.86
40982;BME280;26708;50.304;19.028;2023-03-22T04:20:10;98062.09;;;7.24;66.13
40982;BME280;26708;50.304;19.028;2023-03-22T04:22:16;98157.66;;;7.72;66.04
40982;BME280;26708;50.304;19.028;2023-03-22T04:24:22;98139.41;;;7.57;66.23
40982;BME280;26708;50.304;19.028;2023-03-22T04:26:27;98150.69;;;7.60;66.39
40982;BME280;26708;50.304;19.028;2023-03-22T04:28:48;98105.47;;;7.30;66.30
40982;BME280;26708;50.304;19.028;2023-03-22T04:30:57;98151.53;;;7.56;66.19
40982;BME280;26708;50.304;19.028;2023-03-22T04:33:22;98161.97;;;7.58;66.44
40982;BME280;26708;50.304;19.028;2023-03-22T04:35:45;98167.16;;;7.61;66.36
40982;BME280;26708;50.304;19.028;2023-03-22T04:37:51;98148.94;;;7.49;66.55
40982;BME280;26708;50.304;19.028;2023-03-22T04:39:57;98131.50;;;7.25;66.62
40982;BME280;26708;50.304;19.028;2023-03-22T04:42:25;98154.13;;;7.43;66.93
40982;BME280;26708;50.304;19.028;2023-03-22T04:44:40;98181.91;;;7.53;67.09
40982;BME280;26708;50.304;19.028;2023-03-22T04:46:47;98181.91;;;7.54;67.17
40982;BME280;26708;50.304;19.028;2023-03-22T04:48:52;98181.03;;;7.51;66.90
40982;BME280;26708;50.304;19.028;2023-03-22T04:50:57;98176.66;;;7.39;67.47
40982;BME280;26708;50.304;19.028;2023-03-22T04:53:06;98174.88;;;7.26;67.42
40982;BME280;26708;50.304;19.028;2023-03-22T04:55:16;98173.09;;;7.18;68.19
40982;BME280;26708;50.304;19.028;2023-03-22T04:57:21;98162.59;;;7.00;68.25
40982;BME280;26708;50.304;19.028;2023-03-22T04:59:26;98176.50;;;7.08;68.82
40982;BME280;26708;50.304;19.028;2023-03-22T05:01:33;98173.91;;;7.08;68.94
40982;BME280;26708;50.304;19.028;2023-03-22T05:03:52;98175.59;;;6.97;69.11
40982;BME280;26708;50.304;19.028;2023-03-22T05:05:59;98137.28;;;6.70;69.45
40982;BME280;26708;50.304;19.028;2023-03-22T05:08:14;98166.91;;;6.90;69.93
40982;BME280;26708;50.304;19.028;2023-03-22T05:10:22;98163.41;;;6.90;70.02
40982;BME280;26708;50.304;19.028;2023-03-22T05:12:28;98114.72;;;6.62;70.22
40982;BME280;26708;50.304;19.028;2023-03-22T05:14:52;98171.25;;;6.93;70.50
40982;BME280;26708;50.304;19.028;2023-03-22T05:17:02;98165.19;;;6.92;70.31
40982;BME280;26708;50.304;19.028;2023-03-22T05:19:12;98163.47;;;6.93;70.46
40982;BME280;26708;50.304;19.028;2023-03-22T05:21:23;98160.88;;;6.96;70.54
40982;BME280;26708;50.304;19.028;2023-03-22T05:23:33;98174.75;;;6.99;70.50
40982;BME280;26708;50.304;19.028;2023-03-22T05:25:39;98172.19;;;7.07;70.67
40982;BME280;26708;50.304;19.028;2023-03-22T05:27:50;98128.75;;;6.88;70.23
40982;BME280;26708;50.304;19.028;2023-03-22T05:30:10;98173.13;;;7.22;70.37
40982;BME280;26708;50.304;19.028;2023-03-22T05:32:27;98165.34;;;7.27;69.65
40982;BME280;26708;50.304;19.028;2023-03-22T05:34:34;98138.38;;;7.10;69.50
40982;BME280;26708;50.304;19.028;2023-03-22T05:36:54;98122.69;;;6.96;69.86
40982;BME280;26708;50.304;19.028;2023-03-22T05:39:05;98171.38;;;7.24;69.93
40982;BME280;26708;50.304;19.028;2023-03-22T05:41:09;98174.88;;;7.28;69.57
40982;BME280;26708;50.304;19.028;2023-03-22T05:43:16;98179.25;;;7.32;69.59
40982;BME280;26708;50.304;19.028;2023-03-22T05:45:24;98176.66;;;7.36;69.27
40982;BME280;26708;50.304;19.028;2023-03-22T05:47:38;98174.06;;;7.41;69.46
40982;BME280;26708;50.304;19.028;2023-03-22T05:49:56;98181.03;;;7.46;69.17
40982;BME280;26708;50.304;19.028;2023-03-22T05:52:03;98144.53;;;7.27;69.17
40982;BME280;26708;50.304;19.028;2023-03-22T05:54:28;98128.88;;;7.25;69.36
40982;BME280;26708;50.304;19.028;2023-03-22T05:56:34;98152.38;;;7.43;69.11
40982;BME280;26708;50.304;19.028;2023-03-22T05:58:42;98176.75;;;7.69;68.88
40982;BME280;26708;50.304;19.028;2023-03-22T06:00:50;98173.28;;;7.75;68.71
40982;BME280;26708;50.304;19.028;2023-03-22T06:02:57;98176.75;;;7.81;68.63
40982;BME280;26708;50.304;19.028;2023-03-22T06:05:09;98115.94;;;7.46;68.32
40982;BME280;26708;50.304;19.028;2023-03-22T06:07:16;98179.38;;;7.87;68.45
40982;BME280;26708;50.304;19.028;2023-03-22T06:09:35;98181.13;;;7.97;68.29
40982;BME280;26708;50.304;19.028;2023-03-22T06:11:43;98184.63;;;7.99;67.64
40982;BME280;26708;50.304;19.028;2023-03-22T06:13:49;98179.41;;;8.03;67.96
40982;BME280;26708;50.304;19.028;2023-03-22T06:15:59;98117.75;;;7.74;67.58
40982;BME280;26708;50.304;19.028;2023-03-22T06:18:05;98171.59;;;8.11;67.46
40982;BME280;26708;50.304;19.028;2023-03-22T06:20:17;98176.81;;;8.11;67.55
40982;BME280;26708;50.304;19.028;2023-03-22T06:22:28;98172.50;;;8.13;67.14
40982;BME280;26708;50.304;19.028;2023-03-22T06:24:33;98173.31;;;8.16;67.48
40982;BME280;26708;50.304;19.028;2023-03-22T06:26:41;98176.81;;;8.21;67.43
40982;BME280;26708;50.304;19.028;2023-03-22T06:28:46;98174.22;;;8.18;67.08
40982;BME280;26708;50.304;19.028;2023-03-22T06:30:51;98162.06;;;8.11;67.30
40982;BME280;26708;50.304;19.028;2023-03-22T06:33:22;98166.41;;;8.18;67.02
40982;BME280;26708;50.304;19.028;2023-03-22T06:35:36;98136.00;;;7.93;66.93
40982;BME280;26708;50.304;19.028;2023-03-22T06:37:43;98169.00;;;8.17;67.32
40982;BME280;26708;50.304;19.028;2023-03-22T06:39:47;98131.66;;;8.00;67.36
40982;BME280;26708;50.304;19.028;2023-03-22T06:41:54;98142.06;;;8.09;67.25
40982;BME280;26708;50.304;19.028;2023-03-22T06:44:00;98167.31;;;8.31;67.51
40982;BME280;26708;50.304;19.028;2023-03-22T06:46:23;98166.41;;;8.39;67.24
40982;BME280;26708;50.304;19.028;2023-03-22T06:48:38;98164.66;;;8.43;66.86
40982;BME280;26708;50.304;19.028;2023-03-22T06:50:50;98173.38;;;8.49;66.60
40982;BME280;26708;50.304;19.028;2023-03-22T06:53:01;98168.16;;;8.55;66.54
40982;BME280;26708;50.304;19.028;2023-03-22T06:55:07;98170.72;;;8.66;66.38
40982;BME280;26708;50.304;19.028;2023-03-22T06:57:12;98166.38;;;8.74;66.21
40982;BME280;26708;50.304;19.028;2023-03-22T06:59:17;98171.56;;;8.78;65.94
40982;BME280;26708;50.304;19.028;2023-03-22T07:01:23;98169.84;;;8.80;65.67
40982;BME280;26708;50.304;19.028;2023-03-22T07:03:28;98069.09;;;8.24;65.65
40982;BME280;26708;50.304;19.028;2023-03-22T07:05:38;98175.06;;;8.85;65.72
40982;BME280;26708;50.304;19.028;2023-03-22T07:07:46;98171.56;;;8.89;65.81
40982;BME280;26708;50.304;19.028;2023-03-22T07:09:51;98171.56;;;8.96;65.26
40982;BME280;26708;50.304;19.028;2023-03-22T07:11:57;98174.16;;;8.96;65.31
40982;BME280;26708;50.304;19.028;2023-03-22T07:14:03;98157.66;;;8.88;65.45
40982;BME280;26708;50.304;19.028;2023-03-22T07:16:26;98177.63;;;9.04;65.22
40982;BME280;26708;50.304;19.028;2023-03-22T07:18:33;98175.84;;;9.09;65.24
40982;BME280;26708;50.304;19.028;2023-03-22T07:20:39;98182.78;;;9.18;65.26
40982;BME280;26708;50.304;19.028;2023-03-22T07:22:48;98180.13;;;9.27;64.84
40982;BME280;26708;50.304;19.028;2023-03-22T07:24:55;98188.84;;;9.33;64.81
40982;BME280;26708;50.304;19.028;2023-03-22T07:27:04;98179.25;;;9.35;64.66
40982;BME280;26708;50.304;19.028;2023-03-22T07:29:08;98188.75;;;9.53;64.46
40982;BME280;26708;50.304;19.028;2023-03-22T07:31:14;98186.97;;;9.61;64.00
40982;BME280;26708;50.304;19.028;2023-03-22T07:33:31;98190.44;;;9.63;63.56
40982;BME280;26708;50.304;19.028;2023-03-22T07:35:37;98179.16;;;9.65;63.59
40982;BME280;26708;50.304;19.028;2023-03-22T07:37:42;98176.50;;;9.67;63.75
40982;BME280;26708;50.304;19.028;2023-03-22T07:40:03;98090.50;;;9.26;63.79
40982;BME280;26708;50.304;19.028;2023-03-22T07:42:10;98173.81;;;9.83;63.90
40982;BME280;26708;50.304;19.028;2023-03-22T07:44:43;98171.13;;;9.95;63.05
40982;BME280;26708;50.304;19.028;2023-03-22T07:46:53;98172.78;;;10.07;62.87
40982;BME280;26708;50.304;19.028;2023-03-22T07:49:04;98174.47;;;10.17;62.81
40982;BME280;26708;50.304;19.028;2023-03-22T07:51:31;98170.03;;;10.26;62.19
40982;BME280;26708;50.304;19.028;2023-03-22T07:53:38;98123.97;;;10.06;62.08
40982;BME280;26708;50.304;19.028;2023-03-22T07:55:46;98165.50;;;10.45;62.01
40982;BME280;26708;50.304;19.028;2023-03-22T07:57:51;98133.28;;;10.40;61.77
40982;BME280;26708;50.304;19.028;2023-03-22T07:59:57;98156.66;;;10.58;61.52
40982;BME280;26708;50.304;19.028;2023-03-22T08:02:16;98164.38;;;10.74;61.18
40982;BME280;26708;50.304;19.028;2023-03-22T08:04:25;98143.44;;;10.74;60.75
40982;BME280;26708;50.304;19.028;2023-03-22T08:06:48;98163.34;;;10.90;60.29
40982;BME280;26708;50.304;19.028;2023-03-22T08:08:55;98165.00;;;10.99;59.93
40982;BME280;26708;50.304;19.028;2023-03-22T08:11:02;98163.16;;;11.07;60.00
40982;BME280;26708;50.304;19.028;2023-03-22T08:13:08;98150.09;;;11.05;59.14
40982;BME280;26708;50.304;19.028;2023-03-22T08:15:13;98140.47;;;11.07;59.16
40982;BME280;26708;50.304;19.028;2023-03-22T08:17:18;98165.53;;;11.29;58.93
40982;BME280;26708;50.304;19.028;2023-03-22T08:19:24;98160.19;;;11.38;58.72
40982;BME280;26708;50.304;19.028;2023-03-22T08:21:30;98147.97;;;11.39;58.41
40982;BME280;26708;50.304;19.028;2023-03-22T08:23:35;98141.84;;;11.38;58.24
40982;BME280;26708;50.304;19.028;2023-03-22T08:26:03;98151.34;;;11.45;58.53
40982;BME280;26708;50.304;19.028;2023-03-22T08:28:09;98150.41;;;11.49;58.26
40982;BME280;26708;50.304;19.028;2023-03-22T08:30:17;98143.44;;;11.51;58.51
40982;BME280;26708;50.304;19.028;2023-03-22T08:32:23;98149.50;;;11.55;58.22
40982;BME280;26708;50.304;19.028;2023-03-22T08:34:28;98151.16;;;11.59;58.16
40982;BME280;26708;50.304;19.028;2023-03-22T08:36:33;98159.81;;;11.65;58.10
40982;BME280;26708;50.304;19.028;2023-03-22T08:38:39;98145.88;;;11.63;57.76
40982;BME280;26708;50.304;19.028;2023-03-22T08:40:47;98155.38;;;11.70;57.66
40982;BME280;26708;50.304;19.028;2023-03-22T08:42:58;98148.34;;;11.75;57.48
40982;BME280;26708;50.304;19.028;2023-03-22T08:45:08;98153.50;;;11.80;57.61
40982;BME280;26708;50.304;19.028;2023-03-22T08:47:23;98137.03;;;11.70;57.09
40982;BME280;26708;50.304;19.028;2023-03-22T08:49:33;98154.34;;;11.80;57.14
40982;BME280;26708;50.304;19.028;2023-03-22T08:51:47;98141.25;;;11.80;57.13
40982;BME280;26708;50.304;19.028;2023-03-22T08:54:24;98151.72;;;11.83;57.43
40982;BME280;26708;50.304;19.028;2023-03-22T08:56:36;98140.31;;;11.84;57.21
40982;BME280;26708;50.304;19.028;2023-03-22T08:59:05;98128.88;;;11.88;57.06
40982;BME280;26708;50.304;19.028;2023-03-22T09:01:27;98078.53;;;11.67;56.80
40982;BME280;26708;50.304;19.028;2023-03-22T09:03:35;98133.09;;;12.04;56.89
40982;BME280;26708;50.304;19.028;2023-03-22T09:05:40;98132.03;;;12.14;56.72
40982;BME280;26708;50.304;19.028;2023-03-22T09:07:50;98132.78;;;12.22;56.56
40982;BME280;26708;50.304;19.028;2023-03-22T09:10:05;98134.34;;;12.33;56.32
40982;BME280;26708;50.304;19.028;2023-03-22T09:12:15;98135.00;;;12.44;55.81
40982;BME280;26708;50.304;19.028;2023-03-22T09:14:23;98137.47;;;12.55;55.83
40982;BME280;26708;50.304;19.028;2023-03-22T09:16:28;98126.03;;;12.57;55.33
40982;BME280;26708;50.304;19.028;2023-03-22T09:18:36;98121.53;;;12.64;55.40
40982;BME280;26708;50.304;19.028;2023-03-22T09:20:47;98109.94;;;12.77;55.19
40982;BME280;26708;50.304;19.028;2023-03-22T09:22:55;98075.97;;;12.68;54.95
40982;BME280;26708;50.304;19.028;2023-03-22T09:25:00;98119.91;;;13.04;54.95
40982;BME280;26708;50.304;19.028;2023-03-22T09:27:06;98118.91;;;13.11;53.38
40982;BME280;26708;50.304;19.028;2023-03-22T09:29:12;98120.59;;;13.16;53.30
40982;BME280;26708;50.304;19.028;2023-03-22T09:31:20;98116.97;;;13.22;52.55
40982;BME280;26708;50.304;19.028;2023-03-22T09:33:39;98106.34;;;13.26;52.22
40982;BME280;26708;50.304;19.028;2023-03-22T09:35:44;98087.91;;;13.28;51.63
40982;BME280;26708;50.304;19.028;2023-03-22T09:37:50;98110.31;;;13.45;51.83
40982;BME280;26708;50.304;19.028;2023-03-22T09:39:56;98100.63;;;13.47;51.81
40982;BME280;26708;50.304;19.028;2023-03-22T09:42:04;98117.81;;;13.63;51.79
40982;BME280;26708;50.304;19.028;2023-03-22T09:44:25;98076.81;;;13.55;51.63
40982;BME280;26708;50.304;19.028;2023-03-22T09:46:40;98046.97;;;13.56;51.10
40982;BME280;26708;50.304;19.028;2023-03-22T09:48:49;98101.25;;;13.98;51.02
40982;BME280;26708;50.304;19.028;2023-03-22T09:50:55;98037.22;;;13.61;50.84
40982;BME280;26708;50.304;19.028;2023-03-22T09:53:00;98104.56;;;14.06;50.52
40982;BME280;26708;50.304;19.028;2023-03-22T09:55:09;98104.56;;;14.06;50.90
40982;BME280;26708;50.304;19.028;2023-03-22T09:57:28;98074.22;;;13.90;50.73
40982;BME280;26708;50.304;19.028;2023-03-22T09:59:46;98090.47;;;14.08;50.84
40982;BME280;26708;50.304;19.028;2023-03-22T10:02:16;98072.97;;;14.06;50.87
40982;BME280;26708;50.304;19.028;2023-03-22T10:04:45;98092.94;;;14.16;50.87
40982;BME280;26708;50.304;19.028;2023-03-22T10:07:05;98084.25;;;14.12;51.17
40982;BME280;26708;50.304;19.028;2023-03-22T10:09:28;98098.88;;;14.24;51.38
40982;BME280;26708;50.304;19.028;2023-03-22T10:11:51;98087.34;;;14.28;51.01
40982;BME280;26708;50.304;19.028;2023-03-22T10:14:22;98084.84;;;14.23;51.07
40982;BME280;26708;50.304;19.028;2023-03-22T10:16:34;98084.78;;;14.26;51.37
40982;BME280;26708;50.304;19.028;2023-03-22T10:18:47;98086.47;;;14.29;51.10
40982;BME280;26708;50.304;19.028;2023-03-22T10:20:59;98055.25;;;14.14;51.19
40982;BME280;26708;50.304;19.028;2023-03-22T10:23:11;98073.34;;;14.27;51.21
40982;BME280;26708;50.304;19.028;2023-03-22T10:25:30;98067.75;;;14.39;51.03
40982;BME280;26708;50.304;19.028;2023-03-22T10:27:38;98075.59;;;14.42;50.92
40982;BME280;26708;50.304;19.028;2023-03-22T10:29:47;98078.09;;;14.47;50.96
40982;BME280;26708;50.304;19.028;2023-03-22T10:32:11;98034.66;;;14.29;50.55
40982;BME280;26708;50.304;19.028;2023-03-22T10:34:23;98083.91;;;14.59;50.65
40982;BME280;26708;50.304;19.028;2023-03-22T10:36:34;98065.47;;;14.59;50.21
40982;BME280;26708;50.304;19.028;2023-03-22T10:38:49;98075.75;;;14.68;50.37
40982;BME280;26708;50.304;19.028;2023-03-22T10:40:58;98072.94;;;14.76;50.16
40982;BME280;26708;50.304;19.028;2023-03-22T10:43:16;98074.31;;;14.89;50.34
40982;BME280;26708;50.304;19.028;2023-03-22T10:45:27;98067.16;;;14.94;49.71
40982;BME280;26708;50.304;19.028;2023-03-22T10:47:38;98063.69;;;14.92;49.66
40982;BME280;26708;50.304;19.028;2023-03-22T10:49:53;98077.59;;;14.97;49.49
40982;BME280;26708;50.304;19.028;2023-03-22T10:52:05;98008.28;;;14.64;49.54
40982;BME280;26708;50.304;19.028;2023-03-22T10:54:24;98028.06;;;14.77;49.53
40982;BME280;26708;50.304;19.028;2023-03-22T10:56:29;98067.88;;;15.00;49.36
40982;BME280;26708;50.304;19.028;2023-03-22T10:58:34;98053.97;;;14.94;49.35
40982;BME280;26708;50.304;19.028;2023-03-22T11:00:43;97896.69;;;14.04;49.45
40982;BME280;26708;50.304;19.028;2023-03-22T11:02:52;98064.19;;;15.06;49.58
40982;BME280;26708;50.304;19.028;2023-03-22T11:05:06;98033.56;;;15.02;49.48
40982;BME280;26708;50.304;19.028;2023-03-22T11:07:29;98049.00;;;15.14;49.42
40982;BME280;26708;50.304;19.028;2023-03-22T11:09:36;98000.47;;;14.90;49.16
40982;BME280;26708;50.304;19.028;2023-03-22T11:11:49;98031.31;;;15.17;48.97
40982;BME280;26708;50.304;19.028;2023-03-22T11:14:01;98040.75;;;15.26;49.13
40982;BME280;26708;50.304;19.028;2023-03-22T11:16:15;98038.00;;;15.29;48.47
40982;BME280;26708;50.304;19.028;2023-03-22T11:18:28;98038.00;;;15.29;48.94
40982;BME280;26708;50.304;19.028;2023-03-22T11:20:39;98041.34;;;15.35;48.86
40982;BME280;26708;50.304;19.028;2023-03-22T11:22:47;98017.94;;;15.25;48.56
40982;BME280;26708;50.304;19.028;2023-03-22T11:24:54;98035.81;;;15.44;48.34
40982;BME280;26708;50.304;19.028;2023-03-22T11:27:05;97992.50;;;15.22;48.42
40982;BME280;26708;50.304;19.028;2023-03-22T11:29:15;97997.56;;;15.30;48.32
40982;BME280;26708;50.304;19.028;2023-03-22T11:31:22;98019.66;;;15.55;47.77
40982;BME280;26708;50.304;19.028;2023-03-22T11:33:27;98020.50;;;15.55;47.66
40982;BME280;26708;50.304;19.028;2023-03-22T11:35:37;98013.69;;;15.48;47.16